M\t Eviapetrol III — SVA3278 — position and weather

sailwx.info

Track history (hours):
 
Tides and Currents Weather Stations Pressure Air Temp Water Temp Dewpoint Dewpoint Depression Visibility Wind Speed Wind Dir Waves Ship Positions

M\t Eviapetrol III

Last reported at 2018-Feb-14 23:52 UTC. Time now 2018-Feb-22 03:03 UTC.
Position N 37°34' E 025°55'.

Length 78 m; draft 5.1 m.

Type: Tanker. MMSI: 240949000.

Date/timePositionNaut miles runAvg speedWind from/ knotsBaromVisibWave heightAir tempDewpointWater temp
2018-Feb-14 23:52N 37°34' E 025°55'510.2
2018-Feb-14 23:21N 37°30' E 025°50'14 9.4
2018-Feb-14 21:53N 37°21' E 025°38'4 9.5
2018-Feb-14 21:30N 37°20' E 025°33'5 9.4
2018-Feb-14 21:00N 37°19' E 025°27'5 9.4
2018-Feb-14 20:30N 37°18' E 025°22'5 9.3
2018-Feb-14 20:00N 37°17' E 025°16'5 9.3
2018-Feb-14 19:30N 37°16' E 025°10'5 9.2
2018-Feb-14 19:00N 37°15' E 025°04'5 9.2
2018-Feb-14 18:30N 37°15' E 024°59'4 8.5
2018-Feb-14 18:00N 37°16' E 024°54'4 8.5
2018-Feb-14 17:30N 37°19' E 024°50'4 8.3
2018-Feb-14 17:00N 37°22' E 024°46'49 8.3
2018-Feb-14 11:10N 37°35' E 023°47'1 9.1
2018-Feb-14 11:00N 37°36' E 023°46'4 8.9
2018-Feb-14 10:30N 37°39' E 023°42'5 9.4
2018-Feb-14 10:00N 37°43' E 023°40'5 9.3
2018-Feb-14 09:30N 37°48' E 023°38'5 9.2
2018-Feb-14 09:00N 37°52' E 023°36'5 9.2
2018-Feb-14 08:31N 37°57' E 023°36'3 6.7
2018-Feb-14 08:00N 37°59' E 023°33'3 6.1
2018-Feb-14 07:30N 38°02' E 023°35'0 0.5
2018-Feb-14 07:00N 38°02' E 023°36'0 0.0
2018-Feb-14 06:30N 38°02' E 023°36'0 0.0
2018-Feb-14 06:00N 38°02' E 023°36'0 0.0
2018-Feb-14 05:27N 38°02' E 023°36'0 0.0
2018-Feb-14 05:00N 38°02' E 023°36'0 0.0
2018-Feb-14 04:30N 38°02' E 023°36'0 0.0
2018-Feb-14 03:51N 38°02' E 023°36'0 0.0
2018-Feb-14 03:27N 38°02' E 023°36'0 0.0
2018-Feb-14 02:57N 38°02' E 023°36'0 0.0
2018-Feb-14 02:24N 38°02' E 023°36'0 0.0
2018-Feb-14 02:00N 38°02' E 023°36'0 0.0
2018-Feb-14 01:30N 38°02' E 023°36'0 0.0
2018-Feb-14 00:57N 38°02' E 023°36'0 0.0
2018-Feb-14 00:30N 38°02' E 023°36'0 0.0
2018-Feb-14 00:00N 38°02' E 023°36'0 0.0
2018-Feb-13 23:27N 38°02' E 023°36'0 0.0
2018-Feb-13 22:57N 38°02' E 023°36'0 0.0
2018-Feb-13 22:27N 38°02' E 023°36'0 0.0
2018-Feb-13 21:57N 38°02' E 023°36'0 0.0
2018-Feb-13 21:30N 38°02' E 023°36'0 0.0
2018-Feb-13 20:57N 38°02' E 023°36'0 0.0
2018-Feb-13 20:27N 38°02' E 023°36'0 0.0
2018-Feb-13 19:57N 38°02' E 023°36'0 0.0
2018-Feb-13 19:30N 38°02' E 023°36'0 0.0
2018-Feb-13 19:00N 38°02' E 023°36'0 0.0
2018-Feb-13 18:27N 38°02' E 023°36'0 0.0
2018-Feb-13 17:57N 38°02' E 023°36'0 0.0
2018-Feb-13 17:30N 38°02' E 023°36'0 0.0
2018-Feb-13 17:00N 38°02' E 023°36'0 0.0
2018-Feb-13 16:30N 38°02' E 023°36'0 0.0
2018-Feb-13 15:57N 38°02' E 023°36'0 0.0
2018-Feb-13 15:30N 38°02' E 023°36'0 0.0
2018-Feb-13 15:00N 38°02' E 023°36'0 0.0
2018-Feb-13 14:30N 38°02' E 023°36'0 0.1
2018-Feb-13 14:01N 38°02' E 023°36'2 3.5
2018-Feb-13 13:31N 38°01' E 023°33'1 1.4
2018-Feb-13 13:01N 38°01' E 023°33'3 5.3
2018-Feb-13 12:31N 37°58' E 023°33'4 7.8
2018-Feb-13 12:00N 37°55' E 023°36'4 7.5
2018-Feb-13 11:31N 37°52' E 023°39'5 9.5
2018-Feb-13 11:00N 37°48' E 023°41'5 9.5
2018-Feb-13 10:31N 37°44' E 023°44'4 8.9
2018-Feb-13 10:01N 37°40' E 023°47'5 9.4
2018-Feb-13 09:30N 37°39' E 023°53'5 9.5
2018-Feb-13 09:00N 37°37' E 023°58'5 9.3
2018-Feb-13 08:27N 37°37' E 024°05'11 9.8
2018-Feb-13 07:21N 37°44' E 024°16'  
2018-Feb-05 18:58N 37°33' E 023°52'4 8.6
2018-Feb-05 18:30N 37°35' E 023°48'29 8.3
2018-Feb-05 14:58N 38°01' E 023°33'0 0.0
2018-Feb-05 14:28N 38°01' E 023°33'0 0.0
2018-Feb-05 13:58N 38°01' E 023°33'0 0.0
2018-Feb-05 13:28N 38°01' E 023°33'0 0.1
2018-Feb-05 12:58N 38°01' E 023°33'0 0.0
2018-Feb-05 12:28N 38°01' E 023°33'0 0.0
2018-Feb-05 11:58N 38°01' E 023°33'0 0.0
2018-Feb-05 11:28N 38°01' E 023°33'0 0.0
2018-Feb-05 10:58N 38°01' E 023°33'0 0.0
2018-Feb-05 10:28N 38°01' E 023°33'0 0.0
2018-Feb-05 09:58N 38°01' E 023°33'0 0.0
2018-Feb-05 09:28N 38°01' E 023°33'0 0.0
2018-Feb-05 08:58N 38°01' E 023°33'0 0.0
2018-Feb-05 08:28N 38°01' E 023°33'0 0.0
2018-Feb-05 07:58N 38°01' E 023°33'0 0.0
2018-Feb-05 07:28N 38°01' E 023°33'0 0.0
2018-Feb-05 06:58N 38°01' E 023°33'0 0.0
2018-Feb-05 06:28N 38°01' E 023°33'0 0.0
2018-Feb-05 05:28N 38°01' E 023°33'0 0.0
2018-Feb-05 04:58N 38°01' E 023°33'0 0.0
2018-Feb-05 04:28N 38°01' E 023°33'0 0.0
2018-Feb-05 03:58N 38°01' E 023°33'0 0.0
2018-Feb-05 03:25N 38°01' E 023°33'0 0.0
2018-Feb-05 02:58N 38°01' E 023°33'0 0.9
2018-Feb-05 02:31N 38°01' E 023°33'2 3.8
2018-Feb-05 01:59N 38°02' E 023°35'0 0.2
2018-Feb-05 01:29N 38°02' E 023°36'0 0.0
2018-Feb-05 00:59N 38°02' E 023°36'0 0.0
2018-Feb-05 00:29N 38°02' E 023°36'0 0.0
2018-Feb-04 23:59N 38°02' E 023°36'  
Track history (hours):
 
Tides and Currents Weather Stations Pressure Air Temp Water Temp Dewpoint Dewpoint Depression Visibility Wind Speed Wind Dir Waves Ship Positions

M\t Eviapetrol III

Last reported at 2018-Feb-14 23:52 UTC. Time now 2018-Feb-22 03:03 UTC.
Position N 37°34' E 025°55'.

Length 78 m; draft 5.1 m.

Type: Tanker. MMSI: 240949000.

Date/timePositionNaut miles runAvg speedWind from/ knotsBaromVisibWave heightAir tempDewpointWater temp
2018-Feb-14 23:52N 37°34' E 025°55'510.2
2018-Feb-14 23:21N 37°30' E 025°50'14 9.4
2018-Feb-14 21:53N 37°21' E 025°38'4 9.5
2018-Feb-14 21:30N 37°20' E 025°33'5 9.4
2018-Feb-14 21:00N 37°19' E 025°27'5 9.4
2018-Feb-14 20:30N 37°18' E 025°22'5 9.3
2018-Feb-14 20:00N 37°17' E 025°16'5 9.3
2018-Feb-14 19:30N 37°16' E 025°10'5 9.2
2018-Feb-14 19:00N 37°15' E 025°04'5 9.2
2018-Feb-14 18:30N 37°15' E 024°59'4 8.5
2018-Feb-14 18:00N 37°16' E 024°54'4 8.5
2018-Feb-14 17:30N 37°19' E 024°50'4 8.3
2018-Feb-14 17:00N 37°22' E 024°46'49 8.3
2018-Feb-14 11:10N 37°35' E 023°47'1 9.1
2018-Feb-14 11:00N 37°36' E 023°46'4 8.9
2018-Feb-14 10:30N 37°39' E 023°42'5 9.4
2018-Feb-14 10:00N 37°43' E 023°40'5 9.3
2018-Feb-14 09:30N 37°48' E 023°38'5 9.2
2018-Feb-14 09:00N 37°52' E 023°36'5 9.2
2018-Feb-14 08:31N 37°57' E 023°36'3 6.7
2018-Feb-14 08:00N 37°59' E 023°33'3 6.1
2018-Feb-14 07:30N 38°02' E 023°35'0 0.5
2018-Feb-14 07:00N 38°02' E 023°36'0 0.0
2018-Feb-14 06:30N 38°02' E 023°36'0 0.0
2018-Feb-14 06:00N 38°02' E 023°36'0 0.0
2018-Feb-14 05:27N 38°02' E 023°36'0 0.0
2018-Feb-14 05:00N 38°02' E 023°36'0 0.0
2018-Feb-14 04:30N 38°02' E 023°36'0 0.0
2018-Feb-14 03:51N 38°02' E 023°36'0 0.0
2018-Feb-14 03:27N 38°02' E 023°36'0 0.0
2018-Feb-14 02:57N 38°02' E 023°36'0 0.0
2018-Feb-14 02:24N 38°02' E 023°36'0 0.0
2018-Feb-14 02:00N 38°02' E 023°36'0 0.0
2018-Feb-14 01:30N 38°02' E 023°36'0 0.0
2018-Feb-14 00:57N 38°02' E 023°36'0 0.0
2018-Feb-14 00:30N 38°02' E 023°36'0 0.0
2018-Feb-14 00:00N 38°02' E 023°36'0 0.0
2018-Feb-13 23:27N 38°02' E 023°36'0 0.0
2018-Feb-13 22:57N 38°02' E 023°36'0 0.0
2018-Feb-13 22:27N 38°02' E 023°36'0 0.0
2018-Feb-13 21:57N 38°02' E 023°36'0 0.0
2018-Feb-13 21:30N 38°02' E 023°36'0 0.0
2018-Feb-13 20:57N 38°02' E 023°36'0 0.0
2018-Feb-13 20:27N 38°02' E 023°36'0 0.0
2018-Feb-13 19:57N 38°02' E 023°36'0 0.0
2018-Feb-13 19:30N 38°02' E 023°36'0 0.0
2018-Feb-13 19:00N 38°02' E 023°36'0 0.0
2018-Feb-13 18:27N 38°02' E 023°36'0 0.0
2018-Feb-13 17:57N 38°02' E 023°36'0 0.0
2018-Feb-13 17:30N 38°02' E 023°36'0 0.0
2018-Feb-13 17:00N 38°02' E 023°36'0 0.0
2018-Feb-13 16:30N 38°02' E 023°36'0 0.0
2018-Feb-13 15:57N 38°02' E 023°36'0 0.0
2018-Feb-13 15:30N 38°02' E 023°36'0 0.0
2018-Feb-13 15:00N 38°02' E 023°36'0 0.0
2018-Feb-13 14:30N 38°02' E 023°36'0 0.1
2018-Feb-13 14:01N 38°02' E 023°36'2 3.5
2018-Feb-13 13:31N 38°01' E 023°33'1 1.4
2018-Feb-13 13:01N 38°01' E 023°33'3 5.3
2018-Feb-13 12:31N 37°58' E 023°33'4 7.8
2018-Feb-13 12:00N 37°55' E 023°36'4 7.5
2018-Feb-13 11:31N 37°52' E 023°39'5 9.5
2018-Feb-13 11:00N 37°48' E 023°41'5 9.5
2018-Feb-13 10:31N 37°44' E 023°44'4 8.9
2018-Feb-13 10:01N 37°40' E 023°47'5 9.4
2018-Feb-13 09:30N 37°39' E 023°53'5 9.5
2018-Feb-13 09:00N 37°37' E 023°58'5 9.3
2018-Feb-13 08:27N 37°37' E 024°05'11 9.8
2018-Feb-13 07:21N 37°44' E 024°16'  
2018-Feb-05 18:58N 37°33' E 023°52'4 8.6
2018-Feb-05 18:30N 37°35' E 023°48'29 8.3
2018-Feb-05 14:58N 38°01' E 023°33'0 0.0
2018-Feb-05 14:28N 38°01' E 023°33'0 0.0
2018-Feb-05 13:58N 38°01' E 023°33'0 0.0
2018-Feb-05 13:28N 38°01' E 023°33'0 0.1
2018-Feb-05 12:58N 38°01' E 023°33'0 0.0
2018-Feb-05 12:28N 38°01' E 023°33'0 0.0
2018-Feb-05 11:58N 38°01' E 023°33'0 0.0
2018-Feb-05 11:28N 38°01' E 023°33'0 0.0
2018-Feb-05 10:58N 38°01' E 023°33'0 0.0
2018-Feb-05 10:28N 38°01' E 023°33'0 0.0
2018-Feb-05 09:58N 38°01' E 023°33'0 0.0
2018-Feb-05 09:28N 38°01' E 023°33'0 0.0
2018-Feb-05 08:58N 38°01' E 023°33'0 0.0
2018-Feb-05 08:28N 38°01' E 023°33'0 0.0
2018-Feb-05 07:58N 38°01' E 023°33'0 0.0
2018-Feb-05 07:28N 38°01' E 023°33'0 0.0
2018-Feb-05 06:58N 38°01' E 023°33'0 0.0
2018-Feb-05 06:28N 38°01' E 023°33'0 0.0
2018-Feb-05 05:28N 38°01' E 023°33'0 0.0
2018-Feb-05 04:58N 38°01' E 023°33'0 0.0
2018-Feb-05 04:28N 38°01' E 023°33'0 0.0
2018-Feb-05 03:58N 38°01' E 023°33'0 0.0
2018-Feb-05 03:25N 38°01' E 023°33'0 0.0
2018-Feb-05 02:58N 38°01' E 023°33'0 0.9
2018-Feb-05 02:31N 38°01' E 023°33'2 3.8
2018-Feb-05 01:59N 38°02' E 023°35'0 0.2
2018-Feb-05 01:29N 38°02' E 023°36'0 0.0
2018-Feb-05 00:59N 38°02' E 023°36'0 0.0
2018-Feb-05 00:29N 38°02' E 023°36'0 0.0
2018-Feb-04 23:59N 38°02' E 023°36'  

Dump ship's entire track history